»·PEaware :: N805 KOXR-KLAS

N805 :: KOXR-KLAS

FLIGHT INFORMATION

Flight Status: Arrived
Operator: Privately registered:
United States
More flights under this callsign
Pilot: Cameron M. (36466)
Aircraft: Cessna 525C Citation CJ4
(C25C)
More flights by this aircraft type
Origin: KOXR Oxnard
United States
Destination: KLAS Harry Reid Intl
United States
More flights between these airports :: More routes between these airports
Route: CMA6 GINNA HELDE MISEN RNDRZ1
File this flight plan on PilotEdge
Remarks:
Altitude:
(Current/Filed)
21,000ft
Speed:
(Current/Filed)
400kts
Departed: 22-Oct-21 01:20 PM
Arrived: 22-Oct-21 02:54 PM
Distance/Time
Traveled:
228nm/1:34
Distance/Time
To Go:
Arrived

Flight Plot

Page will automatically refresh every two minutes.

Flight plan parsing failed; only flown route is shown


Map Options




Map Legend


Flown Route
Filed Route
Departure Airport
Arrival Airport
Navaid (VOR, NDB)
Fix

Horizontal Profiles

Position Reports

Time Latitude Longitude Heading Altitude Ground
Speed
22-Oct-21 12:53 34.199198 -119.207029 21 43ft 0kts
22-Oct-21 12:54 34.199198 -119.207029 21 43ft 0kts
22-Oct-21 12:55 34.199198 -119.207029 21 43ft 0kts
22-Oct-21 12:56 34.199198 -119.207029 21 43ft 0kts
22-Oct-21 12:57 34.199198 -119.207029 21 43ft 0kts
22-Oct-21 12:58 34.199198 -119.207029 21 43ft 0kts
22-Oct-21 12:59 34.199198 -119.207029 21 43ft 0kts
22-Oct-21 13:00 34.199198 -119.207029 21 43ft 0kts
22-Oct-21 13:01 34.199198 -119.207029 21 43ft 0kts
22-Oct-21 13:02 34.199198 -119.207029 21 43ft 0kts
22-Oct-21 13:03 34.199198 -119.207029 21 43ft 0kts
22-Oct-21 13:04 34.199198 -119.207029 21 43ft 0kts
22-Oct-21 13:05 34.199198 -119.207029 21 43ft 0kts
22-Oct-21 13:06 34.199198 -119.207029 21 43ft 0kts
22-Oct-21 13:07 34.199198 -119.207029 21 43ft 0kts
22-Oct-21 13:08 34.199198 -119.207029 21 43ft 0kts
22-Oct-21 13:09 34.199198 -119.207029 21 43ft 0kts
22-Oct-21 13:10 34.199198 -119.207029 21 43ft 0kts
22-Oct-21 13:11 34.199198 -119.207029 21 43ft 0kts
22-Oct-21 13:12 34.199198 -119.207029 21 43ft 0kts
22-Oct-21 13:13 34.199198 -119.207029 21 43ft 0kts
22-Oct-21 13:14 34.199198 -119.207029 21 43ft 0kts
22-Oct-21 13:15 34.199231 -119.207013 21 43ft 3kts
22-Oct-21 13:16 34.199759 -119.203676 88 46ft 18kts
22-Oct-21 13:17 34.199885 -119.197582 26 43ft 0kts
22-Oct-21 13:18 34.199885 -119.197582 26 43ft 0kts
22-Oct-21 13:19 34.200762 -119.200721 271 46ft 80kts
22-Oct-21 13:20 34.201384 -119.253055 270 1782ft 236kts
22-Oct-21 13:21 34.201537 -119.265365 270 2233ft 236kts
22-Oct-21 13:51 34.199256 -119.206998 45 43ft 0kts
22-Oct-21 13:52 34.199256 -119.206998 45 43ft 0kts
22-Oct-21 13:53 34.199256 -119.206998 45 43ft 0kts
22-Oct-21 13:54 34.199786 -119.205838 89 47ft 12kts
22-Oct-21 13:55 34.199753 -119.200840 90 45ft 18kts
22-Oct-21 13:56 34.199908 -119.197579 19 43ft 1kts
22-Oct-21 13:57 34.201094 -119.222043 271 629ft 200kts
22-Oct-21 13:58 34.203376 -119.308358 282 3759ft 251kts
22-Oct-21 13:59 34.247799 -119.305142 86 6753ft 232kts
22-Oct-21 14:00 34.233518 -119.226179 104 8512ft 269kts
22-Oct-21 14:01 34.215879 -119.138915 105 12174ft 277kts
22-Oct-21 14:02 34.198954 -119.043092 104 16193ft 306kts
22-Oct-21 14:03 34.181601 -118.939553 101 20204ft 320kts
22-Oct-21 14:04 34.225966 -118.841154 65 21818ft 395kts
22-Oct-21 14:05 34.265990 -118.706505 65 21809ft 438kts
22-Oct-21 14:06 34.312141 -118.570107 66 21732ft 442kts
22-Oct-21 14:07 34.358251 -118.433087 68 21726ft 439kts
22-Oct-21 14:08 34.403804 -118.296505 68 21724ft 437kts
22-Oct-21 14:09 34.449056 -118.160662 67 21720ft 434kts
22-Oct-21 14:10 34.494473 -118.024620 67 21682ft 434kts
22-Oct-21 14:11 34.539063 -117.889457 68 21699ft 433kts
22-Oct-21 14:11 34.576164 -117.776394 68 21700ft 433kts
22-Oct-21 14:13 34.628320 -117.617926 67 21709ft 433kts
22-Oct-21 14:14 34.672530 -117.482223 69 21706ft 433kts
22-Oct-21 14:15 34.718447 -117.346855 61 21697ft 432kts
22-Oct-21 14:15 34.763949 -117.238398 63 21708ft 432kts
22-Oct-21 14:16 34.817709 -117.107459 62 21708ft 433kts
22-Oct-21 14:17 34.871444 -116.976338 62 21691ft 432kts
22-Oct-21 14:19 34.933561 -116.823156 63 21716ft 432kts
22-Oct-21 14:20 34.986633 -116.692052 63 21694ft 432kts
22-Oct-21 14:20 35.030966 -116.582242 62 21709ft 432kts
22-Oct-21 14:21 35.083913 -116.451166 63 21906ft 426kts
22-Oct-21 14:22 35.154268 -116.337170 42 21574ft 422kts
22-Oct-21 14:24 35.247867 -116.215262 46 19455ft 417kts
22-Oct-21 14:24 35.311341 -116.127809 46 17790ft 404kts
22-Oct-21 14:25 35.383916 -116.027859 47 16322ft 382kts
22-Oct-21 14:26 35.453336 -115.932246 46 14909ft 371kts
22-Oct-21 14:27 35.521413 -115.838606 47 13503ft 366kts
22-Oct-21 14:28 35.585884 -115.749289 47 13497ft 335kts
22-Oct-21 14:29 35.647085 -115.666429 47 13511ft 322kts
22-Oct-21 14:30 35.706616 -115.585626 46 13348ft 320kts
22-Oct-21 14:31 35.778348 -115.521276 25 12987ft 323kts
22-Oct-21 14:32 35.855865 -115.466745 26 12965ft 317kts
22-Oct-21 14:33 35.932799 -115.412849 27 12453ft 330kts
22-Oct-21 14:34 36.009207 -115.346109 66 11390ft 340kts
22-Oct-21 14:35 36.010034 -115.230895 98 9862ft 352kts
22-Oct-21 14:36 36.003042 -115.117319 98 7702ft 302kts
22-Oct-21 14:37 35.999080 -115.034589 94 8264ft 223kts
22-Oct-21 14:38 36.011800 -114.968271 20 8165ft 212kts
22-Oct-21 14:39 36.072038 -114.962272 0 7684ft 223kts
22-Oct-21 14:40 36.135150 -114.964790 355 7242ft 229kts
22-Oct-21 14:41 36.198236 -114.968872 352 7219ft 223kts
22-Oct-21 14:42 36.258415 -114.979060 349 7212ft 217kts
22-Oct-21 14:43 36.318240 -114.988359 28 7222ft 225kts
22-Oct-21 14:44 36.342529 -114.923743 68 7215ft 223kts
22-Oct-21 14:45 36.384271 -114.937714 253 7216ft 204kts
22-Oct-21 14:46 36.342113 -114.978837 206 7225ft 197kts
22-Oct-21 14:47 36.293743 -115.012525 214 7186ft 202kts
22-Oct-21 14:48 36.247893 -115.052886 213 6744ft 219kts
22-Oct-21 14:49 36.201787 -115.094730 213 4618ft 161kts
22-Oct-21 14:50 36.164970 -115.119815 202 3739ft 142kts
22-Oct-21 14:51 36.128965 -115.139800 204 2974ft 149kts
22-Oct-21 14:52 36.091516 -115.161078 203 2182ft 115kts
22-Oct-21 14:53 36.083809 -115.166626 241 2182ft 0kts
22-Oct-21 14:54 36.082508 -115.168617 226 2181ft 18kts
22-Oct-21 14:55 36.080724 -115.171703 91 2181ft 4kts

Navigation Log

Ident Type
Flight plan parsing failed, navigation log unavailable